Terminal Aerodrome Forecast
Issued by NWS Cleveland, OH

Home | Current Version | Previous Version | Text Only | Print | Product List | Glossary Off
Versions: 1 2 3 4 5 6 7 8 9 10 11 12 13 14 15 16 17 18 19 20 21 22 23 24 25

000
FTUS41 KCLE 271100
TAFERI
TAF
KERI 271136Z 2712/2812 26006KT 6SM BR SCT015 OVC035
     FM271400 23008KT P6SM BKN025 OVC035
     FM271800 28008KT P6SM VCTS SCT025 OVC035CB
      TEMPO 2722/2802 2SM TSRA SCT015 OVC025CB
     FM280300 35008KT 6SM -SHRA OVC035=

USA.gov is the U.S. government's official web portal to all federal, state and local government web resources and services.